createdAt,value
2022-12-20T00:00:33.235Z,4.6
2022-12-20T00:01:37.439Z,4.6
2022-12-20T00:02:42.035Z,4.6
2022-12-20T00:03:44.608Z,4.6
2022-12-20T00:04:48.627Z,4.6
2022-12-20T00:05:52.099Z,4.6
2022-12-20T00:06:55.942Z,4.6
2022-12-20T00:07:59.373Z,4.6
2022-12-20T00:09:03.410Z,4.6
2022-12-20T00:10:06.861Z,4.6
2022-12-20T00:11:10.335Z,4.6
2022-12-20T00:12:13.424Z,4.6
2022-12-20T00:13:17.189Z,4.6
2022-12-20T00:14:20.496Z,4.7
2022-12-20T00:15:23.693Z,4.7
2022-12-20T00:16:27.434Z,4.7
2022-12-20T00:17:30.818Z,4.6
2022-12-20T00:18:33.396Z,4.6
2022-12-20T00:19:37.123Z,4.6
2022-12-20T00:20:39.631Z,4.7
2022-12-20T00:21:42.221Z,4.6
2022-12-20T00:22:45.311Z,4.6
2022-12-20T00:23:48.537Z,4.6
2022-12-20T00:24:51.646Z,4.6
2022-12-20T00:25:54.538Z,4.6
2022-12-20T00:26:57.600Z,4.6
2022-12-20T00:28:00.323Z,4.6
2022-12-20T00:29:04.106Z,4.6
2022-12-20T00:30:07.874Z,4.6
2022-12-20T00:31:11.369Z,4.6
2022-12-20T00:32:14.561Z,4.6
2022-12-20T00:33:18.397Z,4.6
2022-12-20T00:34:21.583Z,4.6
2022-12-20T00:35:25.333Z,4.6
2022-12-20T00:36:28.896Z,4.6
2022-12-20T00:37:32.058Z,4.6
2022-12-20T00:38:35.633Z,4.6
2022-12-20T00:39:38.731Z,4.6
2022-12-20T00:40:42.141Z,4.5
2022-12-20T00:41:59.923Z,4.5
2022-12-20T00:43:03.898Z,4.5
2022-12-20T00:44:07.994Z,4.6
2022-12-20T00:45:11.712Z,4.5
2022-12-20T00:46:14.242Z,4.6
2022-12-20T00:47:17.828Z,4.5
2022-12-20T00:48:20.670Z,4.5
2022-12-20T00:49:38.722Z,4.5
2022-12-20T00:50:42.489Z,4.5
2022-12-20T00:51:45.618Z,4.6
2022-12-20T00:52:48.780Z,4.6
2022-12-20T00:53:52.471Z,4.6
2022-12-20T00:54:56.332Z,4.6
2022-12-20T00:56:00.114Z,4.6
2022-12-20T00:57:02.640Z,4.6
2022-12-20T00:58:06.094Z,4.6
2022-12-20T00:59:09.872Z,4.6
2022-12-20T01:00:12.951Z,4.7
2022-12-20T01:01:16.216Z,4.7
2022-12-20T01:02:20.143Z,4.7
2022-12-20T01:03:25.456Z,4.7
2022-12-20T01:04:28.979Z,4.7
2022-12-20T01:05:31.413Z,4.7
2022-12-20T01:06:34.199Z,4.7
2022-12-20T01:07:37.355Z,4.7
2022-12-20T01:08:40.449Z,4.7
2022-12-20T01:09:43.601Z,4.7
2022-12-20T01:10:47.259Z,4.7
2022-12-20T01:11:50.328Z,4.7
2022-12-20T01:12:52.500Z,4.8
2022-12-20T01:13:55.903Z,4.7
2022-12-20T01:14:59.149Z,4.7
2022-12-20T01:16:02.922Z,4.8
2022-12-20T01:17:06.463Z,4.8
2022-12-20T01:18:09.551Z,4.8
2022-12-20T01:19:13.352Z,4.8
2022-12-20T01:20:16.842Z,4.8
2022-12-20T01:21:19.944Z,4.8
2022-12-20T01:22:23.373Z,4.8
2022-12-20T01:23:26.209Z,4.8
2022-12-20T01:24:29.311Z,4.8
2022-12-20T01:25:32.775Z,4.8
2022-12-20T01:26:35.559Z,4.8
2022-12-20T01:27:38.733Z,4.8
2022-12-20T01:28:42.529Z,4.8
2022-12-20T01:29:45.604Z,4.9
2022-12-20T01:30:49.635Z,4.9
2022-12-20T01:31:53.121Z,4.9
2022-12-20T01:32:56.962Z,4.9
2022-12-20T01:34:00.117Z,4.9
2022-12-20T01:35:02.968Z,4.9
2022-12-20T01:36:05.696Z,4.9
2022-12-20T01:37:09.447Z,4.9
2022-12-20T01:38:12.614Z,4.9
2022-12-20T01:39:16.069Z,4.9
2022-12-20T01:40:19.798Z,4.9
2022-12-20T01:41:22.898Z,4.9
2022-12-20T01:42:26.709Z,4.9
2022-12-20T01:43:29.499Z,4.9
2022-12-20T01:44:32.299Z,4.9
2022-12-20T01:45:34.993Z,4.9
2022-12-20T01:46:38.818Z,4.8
2022-12-20T01:47:41.231Z,4.8
2022-12-20T01:48:44.865Z,4.8
2022-12-20T01:49:47.668Z,4.8
2022-12-20T01:50:50.797Z,4.8
2022-12-20T01:51:54.169Z,4.8
2022-12-20T01:52:57.924Z,4.8
2022-12-20T01:54:01.720Z,4.8
2022-12-20T01:55:04.731Z,4.7
2022-12-20T01:56:07.858Z,4.8
2022-12-20T01:57:11.730Z,4.8
2022-12-20T01:58:14.842Z,4.8
2022-12-20T01:59:18.537Z,4.7
2022-12-20T02:00:22.196Z,4.8
2022-12-20T02:01:26.936Z,4.8
2022-12-20T02:02:31.735Z,4.7
2022-12-20T02:03:35.357Z,4.7
2022-12-20T02:04:37.639Z,4.7
2022-12-20T02:05:40.777Z,4.7
2022-12-20T02:06:43.910Z,4.7
2022-12-20T02:07:47.061Z,4.8
2022-12-20T02:08:50.450Z,4.7
2022-12-20T02:09:53.246Z,4.7
2022-12-20T02:10:56.329Z,4.7
2022-12-20T02:11:59.464Z,4.7
2022-12-20T02:13:02.917Z,4.7
2022-12-20T02:14:06.697Z,4.7
2022-12-20T02:15:09.783Z,4.8
2022-12-20T02:16:13.101Z,4.8
2022-12-20T02:17:16.242Z,4.8
2022-12-20T02:18:19.997Z,4.8
2022-12-20T02:19:23.405Z,4.8
2022-12-20T02:20:26.399Z,4.8
2022-12-20T02:21:29.183Z,4.8
2022-12-20T02:22:32.547Z,4.8
2022-12-20T02:23:35.855Z,4.8
2022-12-20T02:24:39.298Z,4.8
2022-12-20T02:25:42.035Z,4.7
2022-12-20T02:26:44.908Z,4.7
2022-12-20T02:27:48.053Z,4.8
2022-12-20T02:28:51.210Z,4.8
2022-12-20T02:29:54.937Z,4.8
2022-12-20T02:30:58.122Z,4.8
2022-12-20T02:32:01.965Z,4.8
2022-12-20T02:33:04.765Z,4.8
2022-12-20T02:34:07.697Z,4.8
2022-12-20T02:35:09.868Z,4.8
2022-12-20T02:36:12.596Z,4.8
2022-12-20T02:37:15.687Z,4.8
2022-12-20T02:38:18.723Z,4.8
2022-12-20T02:39:22.362Z,4.8
2022-12-20T02:40:25.424Z,4.8
2022-12-20T02:41:28.820Z,4.8
2022-12-20T02:42:32.591Z,4.8
2022-12-20T02:43:35.318Z,4.8
2022-12-20T02:44:37.577Z,4.7
2022-12-20T02:45:40.991Z,4.7
2022-12-20T02:46:44.223Z,4.7
2022-12-20T02:47:46.761Z,4.7
2022-12-20T02:48:50.767Z,4.7
2022-12-20T02:49:53.897Z,4.7
2022-12-20T02:50:56.969Z,4.7
2022-12-20T02:52:00.088Z,4.7
2022-12-20T02:53:03.079Z,4.7
2022-12-20T02:54:06.280Z,4.7
2022-12-20T02:55:09.042Z,4.7
2022-12-20T02:56:12.437Z,4.7
2022-12-20T02:57:15.278Z,4.7
2022-12-20T02:58:17.711Z,4.7
2022-12-20T02:59:20.879Z,4.8
2022-12-20T03:00:24.286Z,4.8
2022-12-20T03:01:28.262Z,4.8
2022-12-20T03:02:32.503Z,4.8
2022-12-20T03:03:36.023Z,4.8
2022-12-20T03:04:38.942Z,4.8
2022-12-20T03:05:42.530Z,4.8
2022-12-20T03:06:45.590Z,4.8
2022-12-20T03:07:48.046Z,4.8
2022-12-20T03:08:51.511Z,4.8
2022-12-20T03:09:54.540Z,4.8
2022-12-20T03:10:57.545Z,4.8
2022-12-20T03:12:00.364Z,4.8
2022-12-20T03:13:03.541Z,4.8
2022-12-20T03:14:06.600Z,4.8
2022-12-20T03:15:09.407Z,4.8
2022-12-20T03:16:12.527Z,4.8
2022-12-20T03:17:15.889Z,4.8
2022-12-20T03:18:19.755Z,4.8
2022-12-20T03:19:22.802Z,4.8
2022-12-20T03:20:26.166Z,4.8
2022-12-20T03:21:29.302Z,4.9
2022-12-20T03:22:31.842Z,4.9
2022-12-20T03:23:34.589Z,4.9
2022-12-20T03:24:37.972Z,4.8
2022-12-20T03:25:41.017Z,4.8
2022-12-20T03:26:44.174Z,4.9
2022-12-20T03:27:47.384Z,4.8
2022-12-20T03:28:49.876Z,4.9
2022-12-20T03:29:52.870Z,4.9
2022-12-20T03:30:56.303Z,4.8
2022-12-20T03:31:59.823Z,4.9
2022-12-20T03:33:03.108Z,4.9
2022-12-20T03:34:06.312Z,4.9
2022-12-20T03:35:09.779Z,4.8
2022-12-20T03:36:13.020Z,4.9
2022-12-20T03:37:16.270Z,4.9
2022-12-20T03:38:19.948Z,4.9
2022-12-20T03:39:22.957Z,4.9
2022-12-20T03:40:26.377Z,4.9
2022-12-20T03:41:29.150Z,4.9
2022-12-20T03:42:31.896Z,4.9
2022-12-20T03:43:35.295Z,4.9
2022-12-20T03:44:37.852Z,4.9
2022-12-20T03:45:40.926Z,4.9
2022-12-20T03:46:44.032Z,4.9
2022-12-20T03:47:47.305Z,4.9
2022-12-20T03:48:50.689Z,4.9
2022-12-20T03:49:54.075Z,4.9
2022-12-20T03:50:56.985Z,4.9
2022-12-20T03:51:59.534Z,4.9
2022-12-20T03:53:03.554Z,4.9
2022-12-20T03:54:06.688Z,4.9
2022-12-20T03:55:10.056Z,4.9
2022-12-20T03:56:13.510Z,4.9
2022-12-20T03:57:16.541Z,4.9
2022-12-20T03:58:18.975Z,4.9
2022-12-20T03:59:22.989Z,4.9
2022-12-20T04:00:25.724Z,4.9
2022-12-20T04:01:29.807Z,4.9
2022-12-20T04:02:33.941Z,4.9
2022-12-20T04:03:37.974Z,4.9
2022-12-20T04:04:41.575Z,4.9
2022-12-20T04:05:44.715Z,5
2022-12-20T04:06:47.809Z,5
2022-12-20T04:07:50.806Z,5
2022-12-20T04:08:53.950Z,5
2022-12-20T04:09:56.407Z,5
2022-12-20T04:10:58.861Z,5
2022-12-20T04:12:02.235Z,5.1
2022-12-20T04:13:05.407Z,5.1
2022-12-20T04:14:09.028Z,5.1
2022-12-20T04:15:12.429Z,5.1
2022-12-20T04:16:16.054Z,5.1
2022-12-20T04:17:19.221Z,5.1
2022-12-20T04:18:22.295Z,5.1
2022-12-20T04:19:25.386Z,5.1
2022-12-20T04:20:28.859Z,5.1
2022-12-20T04:21:32.316Z,5.1
2022-12-20T04:22:35.584Z,5.2
2022-12-20T04:23:39.253Z,5.2
2022-12-20T04:24:43.306Z,5.2
2022-12-20T04:25:47.045Z,5.2
2022-12-20T04:26:49.534Z,5.2
2022-12-20T04:27:52.581Z,5.2
2022-12-20T04:28:55.403Z,5.3
2022-12-20T04:29:58.598Z,5.3
2022-12-20T04:31:01.566Z,5.3
2022-12-20T04:32:04.944Z,5.3
2022-12-20T04:33:08.441Z,5.3
2022-12-20T04:34:11.575Z,5.3
2022-12-20T04:35:14.413Z,5.3
2022-12-20T04:36:16.952Z,5.4
2022-12-20T04:37:20.394Z,5.4
2022-12-20T04:38:23.462Z,5.4
2022-12-20T04:39:25.905Z,5.4
2022-12-20T04:40:29.150Z,5.4
2022-12-20T04:41:32.152Z,5.4
2022-12-20T04:42:34.697Z,5.4
2022-12-20T04:43:37.896Z,5.4
2022-12-20T04:44:41.577Z,5.4
2022-12-20T04:45:44.691Z,5.4
2022-12-20T04:46:48.105Z,5.5
2022-12-20T04:47:51.986Z,5.5
2022-12-20T04:49:01.590Z,5.4
2022-12-20T04:50:04.796Z,5.5
2022-12-20T04:51:07.904Z,5.5
2022-12-20T04:52:11.215Z,5.5
2022-12-20T04:53:14.294Z,5.5
2022-12-20T04:54:17.703Z,5.5
2022-12-20T04:55:20.520Z,5.6
2022-12-20T04:56:23.430Z,5.6
2022-12-20T04:57:26.247Z,5.6
2022-12-20T04:58:28.727Z,5.6
2022-12-20T04:59:32.070Z,5.6
2022-12-20T05:00:34.254Z,5.6
2022-12-20T05:01:38.500Z,5.6
2022-12-20T05:02:43.559Z,5.6
2022-12-20T05:03:47.211Z,5.6
2022-12-20T05:04:50.230Z,5.6
2022-12-20T05:05:53.675Z,5.6
2022-12-20T05:06:57.234Z,5.7
2022-12-20T05:08:00.139Z,5.7
2022-12-20T05:09:03.770Z,5.7
2022-12-20T05:10:06.871Z,5.7
2022-12-20T05:11:10.257Z,5.7
2022-12-20T05:12:13.667Z,5.7
2022-12-20T05:13:15.844Z,5.7
2022-12-20T05:14:19.496Z,5.7
2022-12-20T05:15:23.131Z,5.7
2022-12-20T05:16:28.488Z,5.8
2022-12-20T05:17:31.329Z,5.7
2022-12-20T05:18:35.116Z,5.8
2022-12-20T05:19:38.508Z,5.8
2022-12-20T05:20:41.565Z,5.8
2022-12-20T05:21:44.300Z,5.8
2022-12-20T05:22:47.421Z,5.8
2022-12-20T05:23:50.503Z,5.8
2022-12-20T05:24:53.843Z,5.8
2022-12-20T05:25:56.919Z,5.8
2022-12-20T05:27:00.595Z,5.8
2022-12-20T05:28:04.748Z,5.8
2022-12-20T05:29:07.569Z,5.8
2022-12-20T05:30:10.438Z,5.8
2022-12-20T05:31:13.476Z,5.7
2022-12-20T05:32:16.670Z,5.8
2022-12-20T05:33:19.578Z,5.8
2022-12-20T05:34:22.883Z,5.8
2022-12-20T05:35:25.725Z,5.8
2022-12-20T05:36:29.010Z,5.8
2022-12-20T05:37:32.303Z,5.8
2022-12-20T05:38:35.092Z,5.8
2022-12-20T05:39:38.115Z,5.8
2022-12-20T05:40:40.651Z,5.8
2022-12-20T05:41:44.020Z,5.8
2022-12-20T05:42:47.464Z,5.8
2022-12-20T05:43:51.145Z,5.8
2022-12-20T05:44:53.208Z,5.8
2022-12-20T05:45:56.041Z,5.8
2022-12-20T05:46:59.855Z,5.8
2022-12-20T05:48:03.049Z,5.7
2022-12-20T05:49:06.208Z,5.7
2022-12-20T05:50:20.157Z,5.7
2022-12-20T05:51:23.570Z,5.7
2022-12-20T05:52:26.288Z,5.8
2022-12-20T05:53:29.346Z,5.8
2022-12-20T05:54:33.174Z,5.8
2022-12-20T05:55:36.300Z,5.8
2022-12-20T05:56:39.723Z,5.8
2022-12-20T05:57:43.539Z,5.8
2022-12-20T05:58:46.333Z,5.8
2022-12-20T05:59:50.381Z,5.8
2022-12-20T06:00:53.613Z,5.8
2022-12-20T06:01:58.170Z,5.8
2022-12-20T06:03:02.757Z,5.8
2022-12-20T06:04:06.484Z,5.8
2022-12-20T06:05:09.369Z,5.8
2022-12-20T06:06:16.842Z,5.7
2022-12-20T06:07:20.226Z,5.8
2022-12-20T06:08:23.143Z,5.8
2022-12-20T06:09:26.592Z,5.8
2022-12-20T06:10:29.460Z,5.8
2022-12-20T06:11:32.347Z,5.8
2022-12-20T06:12:36.477Z,5.8
2022-12-20T06:13:39.278Z,5.8
2022-12-20T06:14:42.302Z,5.7
2022-12-20T06:15:46.113Z,5.7
2022-12-20T06:16:49.636Z,5.7
2022-12-20T06:17:52.147Z,5.7
2022-12-20T06:18:55.143Z,5.7
2022-12-20T06:19:58.258Z,5.7
2022-12-20T06:21:01.907Z,5.8
2022-12-20T06:22:05.006Z,5.8
2022-12-20T06:23:08.437Z,5.8
2022-12-20T06:24:11.567Z,5.7
2022-12-20T06:25:14.749Z,5.8
2022-12-20T06:26:17.841Z,5.7
2022-12-20T06:27:21.039Z,5.7
2022-12-20T06:28:24.800Z,5.8
2022-12-20T06:29:28.079Z,5.7
2022-12-20T06:30:35.775Z,5.7
2022-12-20T06:31:39.802Z,5.8
2022-12-20T06:32:42.740Z,5.7
2022-12-20T06:33:46.105Z,5.8
2022-12-20T06:34:49.491Z,5.8
2022-12-20T06:35:52.266Z,5.8
2022-12-20T06:36:54.757Z,5.8
2022-12-20T06:37:57.819Z,5.8
2022-12-20T06:39:11.308Z,5.8
2022-12-20T06:40:15.105Z,5.8
2022-12-20T06:41:18.142Z,5.8
2022-12-20T06:42:21.041Z,5.8
2022-12-20T06:43:24.121Z,5.8
2022-12-20T06:44:26.931Z,5.8
2022-12-20T06:45:29.785Z,5.8
2022-12-20T06:46:39.742Z,5.8
2022-12-20T06:47:43.250Z,5.8
2022-12-20T06:48:46.679Z,5.8
2022-12-20T06:49:49.753Z,5.8
2022-12-20T06:50:58.023Z,5.8
2022-12-20T06:52:00.506Z,5.8
2022-12-20T06:53:03.683Z,5.8
2022-12-20T06:54:06.455Z,5.8
2022-12-20T06:55:09.932Z,5.8
2022-12-20T06:56:12.678Z,5.9
2022-12-20T06:57:16.239Z,5.9
2022-12-20T06:58:19.961Z,5.9
2022-12-20T06:59:23.206Z,5.9
2022-12-20T07:00:29.226Z,5.9
2022-12-20T07:01:33.073Z,5.9
2022-12-20T07:02:37.356Z,5.9
2022-12-20T07:03:42.192Z,5.9
2022-12-20T07:04:45.291Z,5.9
2022-12-20T07:05:47.715Z,6
2022-12-20T07:06:50.827Z,6
2022-12-20T07:07:54.283Z,6
2022-12-20T07:08:57.388Z,5.9
2022-12-20T07:10:00.180Z,6
2022-12-20T07:11:03.471Z,6.1
2022-12-20T07:12:06.952Z,6
2022-12-20T07:13:10.686Z,6
2022-12-20T07:14:13.601Z,6.1
2022-12-20T07:15:17.086Z,6
2022-12-20T07:16:21.246Z,6
2022-12-20T07:17:24.058Z,6
2022-12-20T07:18:29.101Z,6.1
2022-12-20T07:19:33.389Z,6.1
2022-12-20T07:20:36.151Z,6.1
2022-12-20T07:21:39.247Z,6.1
2022-12-20T07:22:43.997Z,6.1
2022-12-20T07:23:46.778Z,6.1
2022-12-20T07:24:50.481Z,6.2
2022-12-20T07:25:53.283Z,6.2
2022-12-20T07:26:56.787Z,6.2
2022-12-20T07:27:59.775Z,6.2
2022-12-20T07:29:02.861Z,6.2
2022-12-20T07:30:06.438Z,6.2
2022-12-20T07:31:09.522Z,6.2
2022-12-20T07:32:13.149Z,6.2
2022-12-20T07:33:16.055Z,6.2
2022-12-20T07:34:19.161Z,6.3
2022-12-20T07:35:22.879Z,6.2
2022-12-20T07:36:26.723Z,6.2
2022-12-20T07:37:30.365Z,6.3
2022-12-20T07:38:33.884Z,6.3
2022-12-20T07:39:37.432Z,6.2
2022-12-20T07:40:40.625Z,6.2
2022-12-20T07:41:43.479Z,6.2
2022-12-20T07:42:50.729Z,6.3
2022-12-20T07:43:54.148Z,6.3
2022-12-20T07:44:57.887Z,6.3
2022-12-20T07:46:02.501Z,6.3
2022-12-20T07:47:06.464Z,6.3
2022-12-20T07:48:22.589Z,6.3
2022-12-20T07:49:25.958Z,6.3
2022-12-20T07:50:30.303Z,6.3
2022-12-20T07:51:34.888Z,6.3
2022-12-20T07:52:37.811Z,6.3
2022-12-20T07:53:40.588Z,6.3
2022-12-20T07:54:43.297Z,6.3
2022-12-20T07:55:46.754Z,6.3
2022-12-20T07:56:50.596Z,6.3
2022-12-20T07:57:53.659Z,6.3
2022-12-20T07:58:56.174Z,6.3
2022-12-20T08:00:00.012Z,6.3
2022-12-20T08:01:04.216Z,6.3
2022-12-20T08:02:08.768Z,6.3
2022-12-20T08:03:13.899Z,6.3
2022-12-20T08:04:17.494Z,6.3
2022-12-20T08:05:20.769Z,6.3
2022-12-20T08:06:25.295Z,6.4
2022-12-20T08:07:28.684Z,6.3
2022-12-20T08:08:32.779Z,6.3
2022-12-20T08:09:36.182Z,6.3
2022-12-20T08:10:39.643Z,6.3
2022-12-20T08:11:43.413Z,6.3
2022-12-20T08:12:46.366Z,6.3
2022-12-20T08:13:59.496Z,6.3
2022-12-20T08:15:02.906Z,6.4
2022-12-20T08:16:06.340Z,6.4
2022-12-20T08:17:10.252Z,6.4
2022-12-20T08:18:13.925Z,6.3
2022-12-20T08:19:17.576Z,6.3
2022-12-20T08:20:21.126Z,6.3
2022-12-20T08:21:24.008Z,6.4
2022-12-20T08:22:27.490Z,6.3
2022-12-20T08:23:30.883Z,6.4
2022-12-20T08:24:34.389Z,6.4
2022-12-20T08:25:43.926Z,6.4
2022-12-20T08:26:46.936Z,6.4
2022-12-20T08:27:50.053Z,6.4
2022-12-20T08:28:53.400Z,6.4
2022-12-20T08:29:56.130Z,6.4
2022-12-20T08:30:59.198Z,6.4
2022-12-20T08:32:02.420Z,6.4
2022-12-20T08:33:06.198Z,6.4
2022-12-20T08:34:09.960Z,6.4
2022-12-20T08:35:13.635Z,6.4
2022-12-20T08:36:17.334Z,6.4
2022-12-20T08:37:20.069Z,6.4
2022-12-20T08:38:23.838Z,6.4
2022-12-20T08:39:26.595Z,6.4
2022-12-20T08:40:29.641Z,6.4
2022-12-20T08:41:33.449Z,6.4
2022-12-20T08:42:37.433Z,6.4
2022-12-20T08:43:41.321Z,6.4
2022-12-20T08:44:45.279Z,6.4
2022-12-20T08:45:49.257Z,6.5
2022-12-20T08:46:52.094Z,6.4
2022-12-20T08:47:55.485Z,6.4
2022-12-20T08:48:58.850Z,6.4
2022-12-20T08:50:02.797Z,6.4
2022-12-20T08:51:07.156Z,6.4
2022-12-20T08:52:10.953Z,6.4
2022-12-20T08:53:13.735Z,6.4
2022-12-20T08:54:16.926Z,6.4
2022-12-20T08:55:30.683Z,6.4
2022-12-20T08:56:34.001Z,6.4
2022-12-20T08:57:37.472Z,6.4
2022-12-20T08:58:40.907Z,6.4
2022-12-20T08:59:43.995Z,6.4
2022-12-20T09:00:46.424Z,6.4
2022-12-20T09:01:50.357Z,6.4
2022-12-20T09:02:55.543Z,6.4
2022-12-20T09:03:59.681Z,6.4
2022-12-20T09:05:03.187Z,6.4
2022-12-20T09:06:06.638Z,6.4
2022-12-20T09:07:10.436Z,6.4
2022-12-20T09:08:13.784Z,6.4
2022-12-20T09:09:16.596Z,6.4
2022-12-20T09:10:20.467Z,6.4
2022-12-20T09:11:23.900Z,6.4
2022-12-20T09:12:27.271Z,6.4
2022-12-20T09:13:31.122Z,6.5
2022-12-20T09:14:34.486Z,6.4
2022-12-20T09:15:38.362Z,6.4
2022-12-20T09:16:41.890Z,6.4
2022-12-20T09:17:44.771Z,6.4
2022-12-20T09:18:47.631Z,6.4
2022-12-20T09:19:51.105Z,6.5
2022-12-20T09:20:54.483Z,6.4
2022-12-20T09:21:57.572Z,6.5
2022-12-20T09:23:01.166Z,6.5
2022-12-20T09:24:03.966Z,6.5
2022-12-20T09:25:07.083Z,6.5
2022-12-20T09:26:10.258Z,6.5
2022-12-20T09:27:13.348Z,6.5
2022-12-20T09:28:16.129Z,6.6
2022-12-20T09:29:36.900Z,6.5
2022-12-20T09:30:41.195Z,6.6
2022-12-20T09:31:46.384Z,6.5
2022-12-20T09:32:49.327Z,6.5
2022-12-20T09:33:52.081Z,6.5
2022-12-20T09:34:55.183Z,6.5
2022-12-20T09:35:58.043Z,6.5
2022-12-20T09:37:01.553Z,6.6
2022-12-20T09:38:04.754Z,6.5
2022-12-20T09:39:08.427Z,6.5
2022-12-20T09:40:12.045Z,6.6
2022-12-20T09:41:24.306Z,6.6
2022-12-20T09:42:27.643Z,6.6
2022-12-20T09:43:31.180Z,6.6
2022-12-20T09:44:34.538Z,6.6
2022-12-20T09:45:37.256Z,6.6
2022-12-20T09:46:41.335Z,6.6
2022-12-20T09:47:44.526Z,6.6
2022-12-20T09:48:48.175Z,6.6
2022-12-20T09:49:50.990Z,6.7
2022-12-20T09:50:54.136Z,6.6
2022-12-20T09:51:57.308Z,6.7
2022-12-20T09:53:00.329Z,6.7
2022-12-20T09:54:04.059Z,6.7
2022-12-20T09:55:07.393Z,6.7
2022-12-20T09:56:10.816Z,6.7
2022-12-20T09:57:14.241Z,6.8
2022-12-20T09:58:17.623Z,6.8
2022-12-20T09:59:21.103Z,6.8
2022-12-20T10:00:24.758Z,6.8
2022-12-20T10:01:41.890Z,6.8
2022-12-20T10:03:13.648Z,6.8
2022-12-20T10:04:19.353Z,6.8
2022-12-20T10:05:24.320Z,6.8
2022-12-20T10:06:27.976Z,6.8
2022-12-20T10:07:31.709Z,6.8
2022-12-20T10:08:35.064Z,6.8
2022-12-20T10:09:38.216Z,6.8
2022-12-20T10:10:41.503Z,6.9
2022-12-20T10:11:52.614Z,6.9
2022-12-20T10:12:56.351Z,6.9
2022-12-20T10:14:00.090Z,6.9
2022-12-20T10:15:03.601Z,6.9
2022-12-20T10:16:06.889Z,6.9
2022-12-20T10:17:10.415Z,6.9
2022-12-20T10:18:13.584Z,6.9
2022-12-20T10:19:16.975Z,6.9
2022-12-20T10:20:19.832Z,7
2022-12-20T10:21:23.225Z,7
2022-12-20T10:22:26.348Z,7
2022-12-20T10:23:34.868Z,7
2022-12-20T10:24:37.958Z,7.1
2022-12-20T10:25:41.401Z,7
2022-12-20T10:26:43.332Z,7
2022-12-20T10:27:46.467Z,7.1
2022-12-20T10:28:56.040Z,7.1
2022-12-20T10:29:59.239Z,7.1
2022-12-20T10:31:03.590Z,7.1
2022-12-20T10:32:06.353Z,7.1
2022-12-20T10:33:10.069Z,7.1
2022-12-20T10:34:12.515Z,7.1
2022-12-20T10:35:16.187Z,7.1
2022-12-20T10:36:19.566Z,7.1
2022-12-20T10:37:22.689Z,7.2
2022-12-20T10:38:25.444Z,7.2
2022-12-20T10:39:28.888Z,7.2
2022-12-20T10:41:24.469Z,7.2
2022-12-20T10:42:28.206Z,7.2
2022-12-20T10:43:31.946Z,7.2
2022-12-20T10:44:35.470Z,7.3
2022-12-20T10:45:38.543Z,7.3
2022-12-20T10:46:42.797Z,7.4
2022-12-20T10:47:46.659Z,7.4
2022-12-20T10:48:49.533Z,7.5
2022-12-20T10:49:52.547Z,7.5
2022-12-20T10:50:55.705Z,7.5
2022-12-20T10:51:59.932Z,7.5
2022-12-20T10:53:03.430Z,7.5
2022-12-20T10:54:07.540Z,7.5
2022-12-20T10:55:10.596Z,7.6
2022-12-20T10:56:13.601Z,7.6
2022-12-20T10:57:17.300Z,7.6
2022-12-20T10:58:21.336Z,7.6
2022-12-20T10:59:24.858Z,7.6
2022-12-20T11:00:28.369Z,7.7
2022-12-20T11:01:32.664Z,7.7
2022-12-20T11:02:45.705Z,7.7
2022-12-20T11:03:51.119Z,7.8
2022-12-20T11:04:54.636Z,7.8
2022-12-20T11:05:57.817Z,7.9
2022-12-20T11:07:01.219Z,7.9
2022-12-20T11:09:01.260Z,7.9
2022-12-20T11:10:04.813Z,7.9
2022-12-20T11:11:07.963Z,7.9
2022-12-20T11:12:11.302Z,7.9
2022-12-20T11:13:15.008Z,8
2022-12-20T11:14:19.174Z,8
2022-12-20T11:15:36.087Z,8
2022-12-20T11:16:41.780Z,8
2022-12-20T11:17:45.549Z,8
2022-12-20T11:18:49.057Z,8
2022-12-20T11:19:52.492Z,8
2022-12-20T11:20:55.214Z,8
2022-12-20T11:21:58.254Z,8
2022-12-20T11:23:02.034Z,8.1
2022-12-20T11:24:05.818Z,8
2022-12-20T11:25:08.973Z,8
2022-12-20T11:26:12.622Z,8
2022-12-20T11:27:17.865Z,8
2022-12-20T11:28:21.999Z,8
2022-12-20T11:29:25.432Z,8
2022-12-20T11:30:28.596Z,8
2022-12-20T11:31:32.379Z,8
2022-12-20T11:32:35.643Z,8
2022-12-20T11:33:39.133Z,8
2022-12-20T11:34:42.495Z,8
2022-12-20T11:35:45.883Z,8
2022-12-20T11:36:48.074Z,8
2022-12-20T11:37:51.639Z,8
2022-12-20T11:38:54.903Z,8
2022-12-20T11:39:58.286Z,8
2022-12-20T11:41:02.041Z,7.9
2022-12-20T11:42:06.086Z,7.9
2022-12-20T11:43:08.882Z,7.9
2022-12-20T11:44:29.560Z,7.9
2022-12-20T11:45:33.174Z,7.9
2022-12-20T11:46:36.783Z,7.9
2022-12-20T11:47:40.019Z,7.9
2022-12-20T11:48:44.035Z,7.9
2022-12-20T11:49:46.505Z,7.9
2022-12-20T11:50:50.579Z,7.9
2022-12-20T11:51:53.961Z,7.9
2022-12-20T11:52:57.072Z,7.9
2022-12-20T11:54:00.124Z,7.9
2022-12-20T11:55:03.776Z,7.9
2022-12-20T11:56:06.660Z,7.9
2022-12-20T11:57:09.803Z,7.9
2022-12-20T11:58:22.556Z,7.8
2022-12-20T11:59:25.925Z,7.9
2022-12-20T12:00:29.728Z,7.9
2022-12-20T12:01:33.427Z,7.9
2022-12-20T12:02:38.252Z,7.9
2022-12-20T12:03:42.057Z,7.9
2022-12-20T12:04:45.804Z,7.9
2022-12-20T12:05:49.622Z,7.9
2022-12-20T12:06:52.397Z,7.9
2022-12-20T12:07:56.260Z,7.9
2022-12-20T12:09:00.023Z,7.9
2022-12-20T12:10:03.133Z,7.9
2022-12-20T12:11:06.823Z,7.9
2022-12-20T12:12:11.753Z,7.9
2022-12-20T12:13:15.176Z,8
2022-12-20T12:14:18.581Z,8
2022-12-20T12:15:21.943Z,8
2022-12-20T12:16:25.860Z,7.9
2022-12-20T12:17:29.805Z,7.9
2022-12-20T12:18:32.944Z,8
2022-12-20T12:19:36.676Z,8
2022-12-20T12:20:39.845Z,8
2022-12-20T12:21:43.226Z,8
2022-12-20T12:22:45.996Z,8
2022-12-20T12:23:49.034Z,8
2022-12-20T12:24:52.402Z,8
2022-12-20T12:25:56.244Z,8
2022-12-20T12:27:00.046Z,8
2022-12-20T12:28:03.863Z,8
2022-12-20T12:29:07.251Z,8
2022-12-20T12:30:10.415Z,8
2022-12-20T12:31:13.267Z,8.1
2022-12-20T12:32:17.261Z,8.1
2022-12-20T12:33:27.788Z,8.1
2022-12-20T12:34:42.370Z,8
2022-12-20T12:35:45.931Z,8.2
2022-12-20T12:36:49.600Z,8.4
2022-12-20T12:37:53.039Z,8.4
2022-12-20T12:39:04.493Z,8.4
2022-12-20T12:40:08.471Z,8.4
2022-12-20T12:41:11.768Z,8.4
2022-12-20T12:42:15.203Z,8.4
2022-12-20T12:43:18.867Z,8.4
2022-12-20T12:44:22.320Z,8.3
2022-12-20T12:45:25.460Z,8.2
2022-12-20T12:46:29.403Z,8.3
2022-12-20T12:47:33.223Z,8.3
2022-12-20T12:48:36.664Z,8.2
2022-12-20T12:49:40.326Z,8.2
2022-12-20T12:50:44.193Z,8.2
2022-12-20T12:51:47.466Z,8.2
2022-12-20T12:52:50.648Z,8.4
2022-12-20T12:53:54.328Z,8.4
2022-12-20T12:54:56.755Z,8.4
2022-12-20T12:56:47.641Z,8.4
2022-12-20T12:57:52.001Z,8.3
2022-12-20T12:58:55.702Z,8.2
2022-12-20T12:59:59.502Z,8.2
2022-12-20T13:01:03.014Z,8.2
2022-12-20T13:02:07.424Z,8.2
2022-12-20T13:03:12.425Z,8.2
2022-12-20T13:04:16.267Z,8.2
2022-12-20T13:05:27.520Z,8.2
2022-12-20T13:06:31.589Z,8.2
2022-12-20T13:07:34.583Z,8.2
2022-12-20T13:08:38.356Z,8.2
2022-12-20T13:09:41.747Z,8.2
2022-12-20T13:10:45.527Z,8.2
2022-12-20T13:12:12.311Z,8.2
2022-12-20T13:13:16.230Z,8.2
2022-12-20T13:14:18.767Z,8.2
2022-12-20T13:15:22.704Z,8.2
2022-12-20T13:17:26.572Z,8.2
2022-12-20T13:18:30.855Z,8.3
2022-12-20T13:19:34.384Z,8.3
2022-12-20T13:20:38.424Z,8.2
2022-12-20T13:21:42.182Z,8.2
2022-12-20T13:22:45.552Z,8.2
2022-12-20T13:23:48.945Z,8.2
2022-12-20T13:24:52.642Z,8.2
2022-12-20T13:25:55.946Z,8.2
2022-12-20T13:26:58.683Z,8.2
2022-12-20T13:28:12.177Z,8.2
2022-12-20T13:29:15.583Z,8.3
2022-12-20T13:30:19.587Z,8.2
2022-12-20T13:31:23.632Z,8.2
2022-12-20T13:32:27.438Z,8.2
2022-12-20T13:33:29.992Z,8.2
2022-12-20T13:34:33.184Z,8.2
2022-12-20T13:35:37.309Z,8.2
2022-12-20T13:36:40.750Z,8.2
2022-12-20T13:37:54.286Z,8.2
2022-12-20T13:38:58.695Z,8.2
2022-12-20T13:40:02.490Z,8.2
2022-12-20T13:41:05.281Z,8.3
2022-12-20T13:42:08.580Z,8.3
2022-12-20T13:43:11.725Z,8.2
2022-12-20T13:44:15.144Z,8.2
2022-12-20T13:45:18.954Z,8.2
2022-12-20T13:46:22.589Z,8.2
2022-12-20T13:47:25.504Z,8.2
2022-12-20T13:48:28.095Z,8.2
2022-12-20T13:49:31.392Z,8.2
2022-12-20T13:50:34.882Z,8.2
2022-12-20T13:51:38.589Z,8.1
2022-12-20T13:52:41.677Z,8.1
2022-12-20T13:53:45.538Z,8.2
2022-12-20T13:54:49.514Z,8.2
2022-12-20T13:55:53.266Z,8.2
2022-12-20T13:56:56.950Z,8.1
2022-12-20T13:58:00.388Z,8.2
2022-12-20T13:59:02.821Z,8.1
2022-12-20T14:00:09.699Z,8.1
2022-12-20T14:01:13.812Z,8.1
2022-12-20T14:02:18.506Z,8.1
2022-12-20T14:03:23.189Z,8.1
2022-12-20T14:04:27.373Z,8.1
2022-12-20T14:05:30.270Z,8.1
2022-12-20T14:06:33.699Z,8.1
2022-12-20T14:07:37.426Z,8.1
2022-12-20T14:08:40.915Z,8.1
2022-12-20T14:09:44.710Z,8.1
2022-12-20T14:10:48.361Z,8.1
2022-12-20T14:11:51.876Z,8.1
2022-12-20T14:12:55.627Z,8.1
2022-12-20T14:13:59.010Z,8.1
2022-12-20T14:15:02.442Z,8.1
2022-12-20T14:16:05.727Z,8.1
2022-12-20T14:17:09.529Z,8.1
2022-12-20T14:18:13.705Z,8.1
2022-12-20T14:19:17.399Z,8
2022-12-20T14:20:21.060Z,8.1
2022-12-20T14:21:24.529Z,8.1
2022-12-20T14:22:28.515Z,8.1
2022-12-20T14:23:31.675Z,8.1
2022-12-20T14:24:35.045Z,8.1
2022-12-20T14:25:39.218Z,8
2022-12-20T14:26:42.968Z,8.1
2022-12-20T14:27:45.759Z,8
2022-12-20T14:28:48.964Z,8
2022-12-20T14:29:52.332Z,8
2022-12-20T14:30:55.946Z,8.1
2022-12-20T14:31:59.188Z,8
2022-12-20T14:33:02.972Z,8
2022-12-20T14:34:06.396Z,8
2022-12-20T14:35:10.250Z,8
2022-12-20T14:36:14.119Z,8.1
2022-12-20T14:37:17.400Z,8.1
2022-12-20T14:38:20.834Z,8
2022-12-20T14:39:24.648Z,8.1
2022-12-20T14:40:27.969Z,8
2022-12-20T14:41:31.469Z,8
2022-12-20T14:42:35.203Z,8
2022-12-20T14:43:38.891Z,8
2022-12-20T14:44:41.651Z,8
2022-12-20T14:45:45.217Z,8
2022-12-20T14:46:51.157Z,8
2022-12-20T14:47:55.286Z,8